Time,TemperatureF,DewpointF,PressureIn,WindDirection,WindDirectionDegrees,WindSpeedMPH,WindSpeedGustMPH,Humidity,HourlyPrecipIn,Conditions,Clouds,dailyrainin,SoftwareType,DateUTC
2013-03-08 00:11:00,25.5,23.0,30.40,ENE,77,0.0,-999.0,88,-99.99,,,0.00,weatherlink.com 1.10,2013-03-08 06:11:00,
2013-03-08 00:27:00,25.6,23.0,30.40,ENE,78,2.0,-999.0,88,-99.99,,,0.00,weatherlink.com 1.10,2013-03-08 06:27:00,
2013-03-08 00:41:00,25.7,23.0,30.41,ENE,71,2.0,-999.0,88,-99.99,,,0.00,weatherlink.com 1.10,2013-03-08 06:41:00,
2013-03-08 00:56:00,25.9,23.0,30.41,East,80,4.0,-999.0,88,-99.99,,,0.00,weatherlink.com 1.10,2013-03-08 06:56:00,
2013-03-08 01:11:00,26.0,23.0,30.41,ENE,78,4.0,-999.0,88,-99.99,,,0.00,weatherlink.com 1.10,2013-03-08 07:11:00,
2013-03-08 01:27:00,25.8,23.0,30.41,ENE,75,5.0,-999.0,89,-99.99,,,0.00,weatherlink.com 1.10,2013-03-08 07:27:00,
2013-03-08 01:42:00,25.6,23.0,30.40,East,87,5.0,-999.0,89,-99.99,,,0.00,weatherlink.com 1.10,2013-03-08 07:42:00,
2013-03-08 01:57:00,25.4,23.0,30.40,East,80,2.0,-999.0,89,-99.99,,,0.00,weatherlink.com 1.10,2013-03-08 07:57:00,
2013-03-08 02:12:00,25.1,23.0,30.40,East,90,5.0,-999.0,90,-99.99,,,0.00,weatherlink.com 1.10,2013-03-08 08:12:00,
2013-03-08 02:28:00,25.0,23.0,30.39,East,82,6.0,-999.0,90,-99.99,,,0.00,weatherlink.com 1.10,2013-03-08 08:28:00,
2013-03-08 02:42:00,24.8,23.0,30.39,East,79,5.0,-999.0,91,-99.99,,,0.00,weatherlink.com 1.10,2013-03-08 08:42:00,
2013-03-08 02:57:00,24.5,22.0,30.39,ENE,77,1.0,-999.0,91,-99.99,,,0.00,weatherlink.com 1.10,2013-03-08 08:57:00,
2013-03-08 03:12:00,24.4,22.0,30.39,East,82,0.0,-999.0,91,-99.99,,,0.00,weatherlink.com 1.10,2013-03-08 09:12:00,
2013-03-08 03:28:00,24.1,22.0,30.39,East,84,2.0,-999.0,91,-99.99,,,0.00,weatherlink.com 1.10,2013-03-08 09:28:00,
2013-03-08 03:42:00,24.0,22.0,30.38,East,84,0.0,-999.0,91,-99.99,,,0.00,weatherlink.com 1.10,2013-03-08 09:42:00,
2013-03-08 03:57:00,23.9,22.0,30.38,East,84,3.0,-999.0,92,-99.99,,,0.00,weatherlink.com 1.10,2013-03-08 09:57:00,
2013-03-08 04:13:00,24.1,22.0,30.38,East,84,2.0,-999.0,92,-99.99,,,0.00,weatherlink.com 1.10,2013-03-08 10:13:00,
2013-03-08 04:28:00,24.1,22.0,30.38,East,88,0.0,-999.0,92,-99.99,,,0.00,weatherlink.com 1.10,2013-03-08 10:28:00,
2013-03-08 04:43:00,24.3,23.0,30.39,East,83,1.0,-999.0,93,-99.99,,,0.00,weatherlink.com 1.10,2013-03-08 10:43:00,
2013-03-08 04:58:00,24.3,23.0,30.39,ENE,70,0.0,-999.0,93,-99.99,,,0.00,weatherlink.com 1.10,2013-03-08 10:58:00,
2013-03-08 05:13:00,24.5,23.0,30.38,East,80,1.0,-999.0,93,-99.99,,,0.00,weatherlink.com 1.10,2013-03-08 11:13:00,
2013-03-08 05:28:00,24.7,23.0,30.39,East,84,7.0,-999.0,93,-99.99,,,0.00,weatherlink.com 1.10,2013-03-08 11:28:00,
2013-03-08 05:43:00,24.8,23.0,30.39,East,83,3.0,-999.0,93,-99.99,,,0.00,weatherlink.com 1.10,2013-03-08 11:43:00,
2013-03-08 05:58:00,24.9,23.0,30.39,East,88,5.0,-999.0,93,-99.99,,,0.00,weatherlink.com 1.10,2013-03-08 11:58:00,
2013-03-08 06:13:00,24.7,23.0,30.39,East,95,4.0,-999.0,93,-99.99,,,0.00,weatherlink.com 1.10,2013-03-08 12:13:00,
2013-03-08 06:29:00,24.6,23.0,30.39,East,80,3.0,-999.0,93,-99.99,,,0.00,weatherlink.com 1.10,2013-03-08 12:29:00,
2013-03-08 06:44:00,24.5,23.0,30.39,East,79,1.0,-999.0,94,-99.99,,,0.00,weatherlink.com 1.10,2013-03-08 12:44:00,
2013-03-08 06:59:00,24.6,23.0,30.38,East,82,1.0,-999.0,94,-99.99,,,0.00,weatherlink.com 1.10,2013-03-08 12:59:00,
2013-03-08 07:14:00,24.9,24.0,30.38,East,81,0.0,-999.0,94,-99.99,,,0.00,weatherlink.com 1.10,2013-03-08 13:14:00,
2013-03-08 07:29:00,25.3,24.0,30.38,East,82,3.0,-999.0,94,-99.99,,,0.00,weatherlink.com 1.10,2013-03-08 13:29:00,
2013-03-08 07:43:00,25.8,24.0,30.39,East,101,7.0,-999.0,93,-99.99,,,0.00,weatherlink.com 1.10,2013-03-08 13:43:00,
2013-03-08 07:58:00,26.5,25.0,30.39,East,94,6.0,-999.0,93,-99.99,,,0.00,weatherlink.com 1.10,2013-03-08 13:58:00,
2013-03-08 08:14:00,27.4,25.0,30.39,East,95,6.0,-999.0,92,-99.99,,,0.00,weatherlink.com 1.10,2013-03-08 14:14:00,
2013-03-08 08:29:00,28.7,26.0,30.39,East,88,3.0,-999.0,91,-99.99,,,0.00,weatherlink.com 1.10,2013-03-08 14:29:00,
2013-03-08 08:44:00,29.6,27.0,30.39,East,90,12.0,-999.0,90,-99.99,,,0.00,weatherlink.com 1.10,2013-03-08 14:44:00,
2013-03-08 09:00:00,30.7,28.0,30.40,ESE,103,9.0,-999.0,89,-99.99,,,0.00,weatherlink.com 1.10,2013-03-08 15:00:00,
2013-03-08 09:15:00,31.3,28.0,30.39,East,90,8.0,-999.0,88,-99.99,,,0.00,weatherlink.com 1.10,2013-03-08 15:15:00,
2013-03-08 09:30:00,32.5,29.0,30.39,East,92,5.0,-999.0,87,-99.99,,,0.00,weatherlink.com 1.10,2013-03-08 15:30:00,
2013-03-08 09:44:00,33.6,30.0,30.38,East,95,6.0,-999.0,86,-99.99,,,0.00,weatherlink.com 1.10,2013-03-08 15:44:00,
2013-03-08 09:59:00,34.1,30.0,30.38,ESE,103,7.0,-999.0,85,-99.99,,,0.00,weatherlink.com 1.10,2013-03-08 15:59:00,
2013-03-08 10:14:00,35.3,31.0,30.38,East,94,9.0,-999.0,83,-99.99,,,0.00,weatherlink.com 1.10,2013-03-08 16:14:00,
2013-03-08 10:30:00,36.1,31.0,30.38,East,81,4.0,-999.0,82,-99.99,,,0.00,weatherlink.com 1.10,2013-03-08 16:30:00,
2013-03-08 10:44:00,36.6,31.0,30.38,East,89,8.0,-999.0,81,-99.99,,,0.00,weatherlink.com 1.10,2013-03-08 16:44:00,
2013-03-08 10:59:00,37.5,32.0,30.38,East,82,4.0,-999.0,79,-99.99,,,0.00,weatherlink.com 1.10,2013-03-08 16:59:00,
2013-03-08 11:14:00,37.7,32.0,30.37,East,97,8.0,-999.0,79,-99.99,,,0.00,weatherlink.com 1.10,2013-03-08 17:14:00,
2013-03-08 11:30:00,38.5,33.0,30.37,ENE,72,6.0,-999.0,79,-99.99,,,0.00,weatherlink.com 1.10,2013-03-08 17:30:00,
2013-03-08 11:45:00,39.3,32.0,30.36,ESE,113,9.0,-999.0,76,-99.99,,,0.00,weatherlink.com 1.10,2013-03-08 17:45:00,
2013-03-08 12:01:00,39.7,33.0,30.36,East,97,6.0,-999.0,76,-99.99,,,0.00,weatherlink.com 1.10,2013-03-08 18:01:00,
2013-03-08 12:16:00,40.6,33.0,30.35,East,97,8.0,-999.0,75,-99.99,,,0.00,weatherlink.com 1.10,2013-03-08 18:16:00,
2013-03-08 12:39:00,41.4,33.0,30.34,ENE,73,4.0,-999.0,73,-99.99,,,0.00,weatherlink.com 1.10,2013-03-08 18:39:00,
2013-03-08 12:45:00,41.1,33.0,30.34,East,96,5.0,-999.0,73,-99.99,,,0.00,weatherlink.com 1.10,2013-03-08 18:45:00,
2013-03-08 13:01:00,42.1,34.0,30.33,East,85,5.0,-999.0,74,-99.99,,,0.00,weatherlink.com 1.10,2013-03-08 19:01:00,
2013-03-08 13:16:00,41.8,33.0,30.32,East,97,9.0,-999.0,72,-99.99,,,0.00,weatherlink.com 1.10,2013-03-08 19:16:00,
2013-03-08 13:30:00,42.2,33.0,30.32,ENE,77,4.0,-999.0,71,-99.99,,,0.00,weatherlink.com 1.10,2013-03-08 19:30:00,
2013-03-08 13:45:00,41.7,33.0,30.31,East,82,2.0,-999.0,70,-99.99,,,0.00,weatherlink.com 1.10,2013-03-08 19:45:00,
2013-03-08 14:01:00,43.4,33.0,30.31,ENE,77,2.0,-999.0,68,-99.99,,,0.00,weatherlink.com 1.10,2013-03-08 20:01:00,
2013-03-08 14:16:00,43.1,34.0,30.32,ENE,77,5.0,-999.0,70,-99.99,,,0.00,weatherlink.com 1.10,2013-03-08 20:16:00,
2013-03-08 14:32:00,43.4,33.0,30.32,East,84,5.0,-999.0,68,-99.99,,,0.00,weatherlink.com 1.10,2013-03-08 20:32:00,
2013-03-08 14:47:00,43.0,34.0,30.30,East,79,5.0,-999.0,70,-99.99,,,0.00,weatherlink.com 1.10,2013-03-08 20:47:00,
2013-03-08 15:02:00,43.3,32.0,30.31,East,86,5.0,-999.0,64,-99.99,,,0.00,weatherlink.com 1.10,2013-03-08 21:02:00,
2013-03-08 15:17:00,42.2,31.0,30.31,ESE,109,6.0,-999.0,66,-99.99,,,0.00,weatherlink.com 1.10,2013-03-08 21:17:00,
2013-03-08 15:31:00,42.6,32.0,30.30,East,93,4.0,-999.0,67,-99.99,,,0.00,weatherlink.com 1.10,2013-03-08 21:31:00,
2013-03-08 15:46:00,43.0,32.0,30.30,East,80,6.0,-999.0,66,-99.99,,,0.00,weatherlink.com 1.10,2013-03-08 21:46:00,
2013-03-08 16:01:00,42.5,32.0,30.29,East,94,11.0,-999.0,66,-99.99,,,0.00,weatherlink.com 1.10,2013-03-08 22:01:00,
2013-03-08 16:16:00,41.8,32.0,30.29,East,84,3.0,-999.0,68,-99.99,,,0.00,weatherlink.com 1.10,2013-03-08 22:16:00,
2013-03-08 16:31:00,41.1,33.0,30.29,East,80,0.0,-999.0,74,-99.99,,,0.00,weatherlink.com 1.10,2013-03-08 22:31:00,
2013-03-08 16:46:00,40.3,33.0,30.28,NE,51,1.0,-999.0,76,-99.99,,,0.00,weatherlink.com 1.10,2013-03-08 22:46:00,
2013-03-08 17:02:00,39.1,33.0,30.28,ENE,61,2.0,-999.0,79,-99.99,,,0.00,weatherlink.com 1.10,2013-03-08 23:02:00,
2013-03-08 17:17:00,38.7,33.0,30.27,ENE,76,2.0,-999.0,80,-99.99,,,0.00,weatherlink.com 1.10,2013-03-08 23:17:00,
2013-03-08 17:33:00,38.0,33.0,30.26,ENE,63,3.0,-999.0,81,-99.99,,,0.00,weatherlink.com 1.10,2013-03-08 23:33:00,
2013-03-08 17:48:00,37.6,33.0,30.26,East,86,7.0,-999.0,82,-99.99,,,0.00,weatherlink.com 1.10,2013-03-08 23:48:00,
2013-03-08 18:03:00,37.3,32.0,30.25,East,92,11.0,-999.0,82,-99.99,,,0.00,weatherlink.com 1.10,2013-03-09 00:03:00,
2013-03-08 18:18:00,37.2,32.0,30.24,ENE,63,4.0,-999.0,82,-99.99,,,0.00,weatherlink.com 1.10,2013-03-09 00:18:00,
2013-03-08 18:32:00,36.9,32.0,30.24,East,84,4.0,-999.0,83,-99.99,,,0.00,weatherlink.com 1.10,2013-03-09 00:32:00,
2013-03-08 18:47:00,36.8,32.0,30.24,ENE,78,3.0,-999.0,83,-99.99,,,0.00,weatherlink.com 1.10,2013-03-09 00:47:00,
2013-03-08 19:02:00,36.6,32.0,30.24,East,90,9.0,-999.0,83,-99.99,,,0.00,weatherlink.com 1.10,2013-03-09 01:02:00,
2013-03-08 19:17:00,36.6,32.0,30.23,ENE,75,1.0,-999.0,83,-99.99,,,0.00,weatherlink.com 1.10,2013-03-09 01:17:00,
2013-03-08 19:33:00,36.5,32.0,30.23,ENE,67,3.0,-999.0,84,-99.99,,,0.00,weatherlink.com 1.10,2013-03-09 01:33:00,
2013-03-08 19:48:00,36.5,32.0,30.22,East,80,6.0,-999.0,84,-99.99,,,0.00,weatherlink.com 1.10,2013-03-09 01:48:00,
2013-03-08 20:02:00,36.6,32.0,30.22,ENE,65,2.0,-999.0,84,-99.99,,,0.00,weatherlink.com 1.10,2013-03-09 02:02:00,
2013-03-08 20:18:00,36.6,32.0,30.23,East,92,7.0,-999.0,84,-99.99,,,0.00,weatherlink.com 1.10,2013-03-09 02:18:00,
2013-03-08 20:33:00,36.7,32.0,30.23,East,89,6.0,-999.0,84,-99.99,,,0.00,weatherlink.com 1.10,2013-03-09 02:33:00,
2013-03-08 20:48:00,37.1,33.0,30.22,East,89,2.0,-999.0,84,-99.99,,,0.00,weatherlink.com 1.10,2013-03-09 02:48:00,
2013-03-08 21:03:00,37.2,33.0,30.22,East,92,5.0,-999.0,84,-99.99,,,0.00,weatherlink.com 1.10,2013-03-09 03:03:00,
2013-03-08 21:18:00,37.4,33.0,30.22,East,99,8.0,-999.0,83,-99.99,,,0.00,weatherlink.com 1.10,2013-03-09 03:18:00,
2013-03-08 21:33:00,37.4,33.0,30.21,East,92,11.0,-999.0,84,-99.99,,,0.00,weatherlink.com 1.10,2013-03-09 03:33:00,
2013-03-08 21:48:00,37.3,34.0,30.21,East,90,4.0,-999.0,86,-99.99,,,0.00,weatherlink.com 1.10,2013-03-09 03:48:00,
2013-03-08 22:03:00,37.1,34.0,30.20,East,94,6.0,-999.0,87,-99.99,,,0.00,weatherlink.com 1.10,2013-03-09 04:03:00,
2013-03-08 22:18:00,37.2,34.0,30.20,East,87,4.0,-999.0,87,-99.99,,,0.00,weatherlink.com 1.10,2013-03-09 04:18:00,
2013-03-08 22:34:00,37.2,34.0,30.19,East,84,4.0,-999.0,88,-99.99,,,0.00,weatherlink.com 1.10,2013-03-09 04:34:00,
2013-03-08 22:49:00,37.0,34.0,30.19,ESE,105,8.0,-999.0,89,-99.99,,,0.00,weatherlink.com 1.10,2013-03-09 04:49:00,
2013-03-08 23:04:00,37.3,34.0,30.19,East,89,5.0,-999.0,88,-99.99,,,0.00,weatherlink.com 1.10,2013-03-09 05:04:00,
2013-03-08 23:19:00,37.2,34.0,30.18,East,94,5.0,-999.0,89,-99.99,,,0.00,weatherlink.com 1.10,2013-03-09 05:19:00,
2013-03-08 23:34:00,37.2,34.0,30.16,ENE,77,6.0,-999.0,89,-99.99,,,0.00,weatherlink.com 1.10,2013-03-09 05:34:00,
2013-03-08 23:50:00,37.4,34.0,30.15,ENE,78,5.0,-999.0,88,-99.99,,,0.00,weatherlink.com 1.10,2013-03-09 05:50:00,